Disclaimer

Please do not use the information listed here in-flight or in-navigation, as they are not provided to us by the airports but are provided by volunteers, so they might be outdated.

Search


Regions


Airport information page

Radio informations:
MOLDE INFO - 119.95 MHz

Airport informations:
Latitude: 62° 44' 41.00" N
Longitude: 007° 15' 45.00" E
Elevation: 10 feet - 3 meters
Operating hours: Remarks
Operating agency: Civil government, landing fees and diplomatic clearance may be required
Timezone: UTC+1(+2DT) - Last Sunday in March to last Sunday in October
Fuel: Jet A1, without icing nhibitor.

100/130 MIL Spec, low lead, aviation gasoline (BLUE)

Runway information:
07/25 - 5253 x 148 feet< - >1601 x 45 meters

Recent METARs:
ENML 151150Z 03009KT CAVOK M03/M08 Q1026
ENML 151220Z 04009KT CAVOK M03/M08 Q1026
ENML 151250Z 04008KT CAVOK M03/M08 Q1026

Airport on the map: